Terminal Aerodrome Forecast
Issued by NWS Jacksonville, FL

Home | Current Version | Previous Version | Text Only | Print | Product List | Glossary On
Versions: 1 2 3 4 5 6 7 8 9 10 11 12 13 14 15 16 17 18 19 20 21 22 23 24 25
206
FTUS42 KJAX 181751
TAFJAX
TAF
KJAX 181751Z 1818/1918 05014G24KT P6SM SCT025 BKN035
     FM182300 03009KT P6SM VCSH SCT025 BKN040
      TEMPO 1823/1903 5SM SHRA BR BKN025
     FM190500 01005KT P6SM SCT040 BKN070
     FM191400 03010G15KT P6SM VCSH SCT025 BKN035=

USA.gov is the U.S. government's official web portal to all federal, state and local government web resources and services.